sensor_id;sensor_type;location;lat;lon;timestamp;temperature;humidity
41481;DHT22;27217;51.220;5.308;2022-08-21T00:01:30;16.50;99.90
41481;DHT22;27217;51.220;5.308;2022-08-21T00:03:56;16.50;99.90
41481;DHT22;27217;51.220;5.308;2022-08-21T00:06:22;16.50;99.90
41481;DHT22;27217;51.220;5.308;2022-08-21T00:08:50;16.50;99.90
41481;DHT22;27217;51.220;5.308;2022-08-21T00:11:16;16.50;99.90
41481;DHT22;27217;51.220;5.308;2022-08-21T00:13:42;16.50;99.90
41481;DHT22;27217;51.220;5.308;2022-08-21T00:16:08;16.40;99.90
41481;DHT22;27217;51.220;5.308;2022-08-21T00:18:34;16.30;99.90
41481;DHT22;27217;51.220;5.308;2022-08-21T00:21:00;16.30;99.90
41481;DHT22;27217;51.220;5.308;2022-08-21T00:23:26;16.20;99.90
41481;DHT22;27217;51.220;5.308;2022-08-21T00:25:52;16.10;99.90
41481;DHT22;27217;51.220;5.308;2022-08-21T00:28:18;16.20;99.90
41481;DHT22;27217;51.220;5.308;2022-08-21T00:30:44;16.10;99.90
41481;DHT22;27217;51.220;5.308;2022-08-21T00:33:11;16.10;99.90
41481;DHT22;27217;51.220;5.308;2022-08-21T00:35:39;16.20;99.90
41481;DHT22;27217;51.220;5.308;2022-08-21T00:38:07;16.20;99.90
41481;DHT22;27217;51.220;5.308;2022-08-21T00:40:48;16.20;99.90
41481;DHT22;27217;51.220;5.308;2022-08-21T00:43:18;16.10;99.90
41481;DHT22;27217;51.220;5.308;2022-08-21T00:45:44;16.10;99.90
41481;DHT22;27217;51.220;5.308;2022-08-21T00:48:10;16.20;99.90
41481;DHT22;27217;51.220;5.308;2022-08-21T00:50:42;16.10;99.90
41481;DHT22;27217;51.220;5.308;2022-08-21T00:53:11;15.90;99.90
41481;DHT22;27217;51.220;5.308;2022-08-21T00:55:37;15.90;99.90
41481;DHT22;27217;51.220;5.308;2022-08-21T00:58:06;15.70;99.90
41481;DHT22;27217;51.220;5.308;2022-08-21T01:00:35;15.70;99.90
41481;DHT22;27217;51.220;5.308;2022-08-21T01:03:08;15.60;99.90
41481;DHT22;27217;51.220;5.308;2022-08-21T01:05:35;15.60;99.90
41481;DHT22;27217;51.220;5.308;2022-08-21T01:08:02;15.50;99.90
41481;DHT22;27217;51.220;5.308;2022-08-21T01:10:29;15.40;99.90
41481;DHT22;27217;51.220;5.308;2022-08-21T01:12:56;15.40;99.90
41481;DHT22;27217;51.220;5.308;2022-08-21T01:15:25;15.30;99.90
41481;DHT22;27217;51.220;5.308;2022-08-21T01:17:53;15.10;99.90
41481;DHT22;27217;51.220;5.308;2022-08-21T01:20:19;15.10;99.90
41481;DHT22;27217;51.220;5.308;2022-08-21T01:22:45;15.00;99.90
41481;DHT22;27217;51.220;5.308;2022-08-21T01:25:12;15.00;99.90
41481;DHT22;27217;51.220;5.308;2022-08-21T01:27:38;15.00;99.90
41481;DHT22;27217;51.220;5.308;2022-08-21T01:30:13;15.20;99.90
41481;DHT22;27217;51.220;5.308;2022-08-21T01:32:40;15.60;99.90
41481;DHT22;27217;51.220;5.308;2022-08-21T01:35:07;15.60;99.90
41481;DHT22;27217;51.220;5.308;2022-08-21T01:37:34;15.40;99.90
41481;DHT22;27217;51.220;5.308;2022-08-21T01:40:00;15.40;99.90
41481;DHT22;27217;51.220;5.308;2022-08-21T01:42:26;15.00;99.90
41481;DHT22;27217;51.220;5.308;2022-08-21T01:44:51;15.00;99.90
41481;DHT22;27217;51.220;5.308;2022-08-21T01:47:17;14.90;99.90
41481;DHT22;27217;51.220;5.308;2022-08-21T01:49:44;14.80;99.90
41481;DHT22;27217;51.220;5.308;2022-08-21T01:52:11;15.10;99.90
41481;DHT22;27217;51.220;5.308;2022-08-21T01:54:39;15.00;99.90
41481;DHT22;27217;51.220;5.308;2022-08-21T01:57:06;15.00;99.90
41481;DHT22;27217;51.220;5.308;2022-08-21T01:59:32;15.50;99.90
41481;DHT22;27217;51.220;5.308;2022-08-21T02:01:59;15.70;99.90
41481;DHT22;27217;51.220;5.308;2022-08-21T02:04:25;15.50;99.90
41481;DHT22;27217;51.220;5.308;2022-08-21T02:06:51;15.20;99.90
41481;DHT22;27217;51.220;5.308;2022-08-21T02:09:17;15.10;99.90
41481;DHT22;27217;51.220;5.308;2022-08-21T02:11:43;15.30;99.90
41481;DHT22;27217;51.220;5.308;2022-08-21T02:14:14;15.10;99.90
41481;DHT22;27217;51.220;5.308;2022-08-21T02:16:41;14.90;99.90
41481;DHT22;27217;51.220;5.308;2022-08-21T02:19:08;14.90;99.90
41481;DHT22;27217;51.220;5.308;2022-08-21T02:21:34;15.10;99.90
41481;DHT22;27217;51.220;5.308;2022-08-21T02:24:00;15.20;99.90
41481;DHT22;27217;51.220;5.308;2022-08-21T02:26:27;15.00;99.90
41481;DHT22;27217;51.220;5.308;2022-08-21T02:28:52;15.00;99.90
41481;DHT22;27217;51.220;5.308;2022-08-21T02:31:18;15.00;99.90
41481;DHT22;27217;51.220;5.308;2022-08-21T02:33:44;15.00;99.90
41481;DHT22;27217;51.220;5.308;2022-08-21T02:36:11;15.00;99.90
41481;DHT22;27217;51.220;5.308;2022-08-21T02:38:39;14.80;99.90
41481;DHT22;27217;51.220;5.308;2022-08-21T02:41:08;14.90;99.90
41481;DHT22;27217;51.220;5.308;2022-08-21T02:43:35;14.90;99.90
41481;DHT22;27217;51.220;5.308;2022-08-21T02:46:04;14.90;99.90
41481;DHT22;27217;51.220;5.308;2022-08-21T02:48:31;15.10;99.90
41481;DHT22;27217;51.220;5.308;2022-08-21T02:51:00;15.00;99.90
41481;DHT22;27217;51.220;5.308;2022-08-21T02:53:28;15.10;99.90
41481;DHT22;27217;51.220;5.308;2022-08-21T02:55:57;15.20;99.90
41481;DHT22;27217;51.220;5.308;2022-08-21T02:58:30;15.00;99.90
41481;DHT22;27217;51.220;5.308;2022-08-21T03:00:57;15.00;99.90
41481;DHT22;27217;51.220;5.308;2022-08-21T03:03:25;14.90;99.90
41481;DHT22;27217;51.220;5.308;2022-08-21T03:05:51;14.90;99.90
41481;DHT22;27217;51.220;5.308;2022-08-21T03:08:18;14.80;99.90
41481;DHT22;27217;51.220;5.308;2022-08-21T03:10:47;14.80;99.90
41481;DHT22;27217;51.220;5.308;2022-08-21T03:13:14;14.90;99.90
41481;DHT22;27217;51.220;5.308;2022-08-21T03:15:41;14.90;99.90
41481;DHT22;27217;51.220;5.308;2022-08-21T03:18:08;15.00;99.90
41481;DHT22;27217;51.220;5.308;2022-08-21T03:20:35;15.00;99.90
41481;DHT22;27217;51.220;5.308;2022-08-21T03:23:03;14.70;99.90
41481;DHT22;27217;51.220;5.308;2022-08-21T03:25:30;14.20;99.90
41481;DHT22;27217;51.220;5.308;2022-08-21T03:28:00;14.40;99.90
41481;DHT22;27217;51.220;5.308;2022-08-21T03:30:26;14.40;99.90
41481;DHT22;27217;51.220;5.308;2022-08-21T03:32:52;14.60;99.90
41481;DHT22;27217;51.220;5.308;2022-08-21T03:35:19;14.50;99.90
41481;DHT22;27217;51.220;5.308;2022-08-21T03:37:46;14.50;99.90
41481;DHT22;27217;51.220;5.308;2022-08-21T03:40:15;14.50;99.90
41481;DHT22;27217;51.220;5.308;2022-08-21T03:42:41;14.80;99.90
41481;DHT22;27217;51.220;5.308;2022-08-21T03:45:08;15.00;99.90
41481;DHT22;27217;51.220;5.308;2022-08-21T03:47:34;14.80;99.90
41481;DHT22;27217;51.220;5.308;2022-08-21T03:50:01;14.70;99.90
41481;DHT22;27217;51.220;5.308;2022-08-21T03:52:27;14.50;99.90
41481;DHT22;27217;51.220;5.308;2022-08-21T03:54:53;14.50;99.90
41481;DHT22;27217;51.220;5.308;2022-08-21T03:57:22;14.70;99.90
41481;DHT22;27217;51.220;5.308;2022-08-21T03:59:48;14.80;99.90
41481;DHT22;27217;51.220;5.308;2022-08-21T04:02:17;14.40;99.90
41481;DHT22;27217;51.220;5.308;2022-08-21T04:04:45;14.20;99.90
41481;DHT22;27217;51.220;5.308;2022-08-21T04:07:10;14.40;99.90
41481;DHT22;27217;51.220;5.308;2022-08-21T04:09:36;14.20;99.90
41481;DHT22;27217;51.220;5.308;2022-08-21T04:12:02;14.20;99.90
41481;DHT22;27217;51.220;5.308;2022-08-21T04:14:28;14.20;99.90
41481;DHT22;27217;51.220;5.308;2022-08-21T04:16:54;14.10;99.90
41481;DHT22;27217;51.220;5.308;2022-08-21T04:19:20;13.80;99.90
41481;DHT22;27217;51.220;5.308;2022-08-21T04:21:49;13.90;99.90
41481;DHT22;27217;51.220;5.308;2022-08-21T04:24:15;13.70;99.90
41481;DHT22;27217;51.220;5.308;2022-08-21T04:26:40;13.70;99.90
41481;DHT22;27217;51.220;5.308;2022-08-21T04:29:07;13.80;99.90
41481;DHT22;27217;51.220;5.308;2022-08-21T04:31:34;13.60;99.90
41481;DHT22;27217;51.220;5.308;2022-08-21T04:34:00;14.00;99.90
41481;DHT22;27217;51.220;5.308;2022-08-21T04:36:26;14.10;99.90
41481;DHT22;27217;51.220;5.308;2022-08-21T04:38:52;13.90;99.90
41481;DHT22;27217;51.220;5.308;2022-08-21T04:41:18;13.70;99.90
41481;DHT22;27217;51.220;5.308;2022-08-21T04:43:44;14.00;99.90
41481;DHT22;27217;51.220;5.308;2022-08-21T04:46:09;14.20;99.90
41481;DHT22;27217;51.220;5.308;2022-08-21T04:48:36;14.10;99.90
41481;DHT22;27217;51.220;5.308;2022-08-21T04:51:16;14.30;99.90
41481;DHT22;27217;51.220;5.308;2022-08-21T04:53:47;13.80;99.90
41481;DHT22;27217;51.220;5.308;2022-08-21T04:56:15;13.80;99.90
41481;DHT22;27217;51.220;5.308;2022-08-21T04:58:44;13.50;99.90
41481;DHT22;27217;51.220;5.308;2022-08-21T05:01:15;13.50;99.90
41481;DHT22;27217;51.220;5.308;2022-08-21T05:03:42;13.40;99.90
41481;DHT22;27217;51.220;5.308;2022-08-21T05:06:10;13.40;99.90
41481;DHT22;27217;51.220;5.308;2022-08-21T05:08:38;13.60;99.90
41481;DHT22;27217;51.220;5.308;2022-08-21T05:11:06;13.60;99.90
41481;DHT22;27217;51.220;5.308;2022-08-21T05:13:33;13.60;99.90
41481;DHT22;27217;51.220;5.308;2022-08-21T05:15:59;13.60;99.90
41481;DHT22;27217;51.220;5.308;2022-08-21T05:18:26;13.70;99.90
41481;DHT22;27217;51.220;5.308;2022-08-21T05:20:52;13.90;99.90
41481;DHT22;27217;51.220;5.308;2022-08-21T05:23:17;13.90;99.90
41481;DHT22;27217;51.220;5.308;2022-08-21T05:25:43;13.90;99.90
41481;DHT22;27217;51.220;5.308;2022-08-21T05:28:10;13.90;99.90
41481;DHT22;27217;51.220;5.308;2022-08-21T05:30:37;14.20;99.90
41481;DHT22;27217;51.220;5.308;2022-08-21T05:33:05;14.20;99.90
41481;DHT22;27217;51.220;5.308;2022-08-21T05:35:32;14.30;99.90
41481;DHT22;27217;51.220;5.308;2022-08-21T05:37:59;14.50;99.90
41481;DHT22;27217;51.220;5.308;2022-08-21T05:40:25;14.70;99.90
41481;DHT22;27217;51.220;5.308;2022-08-21T05:42:53;14.50;99.90
41481;DHT22;27217;51.220;5.308;2022-08-21T05:45:19;14.20;99.90
41481;DHT22;27217;51.220;5.308;2022-08-21T05:47:45;14.10;99.90
41481;DHT22;27217;51.220;5.308;2022-08-21T05:50:11;14.40;99.90
41481;DHT22;27217;51.220;5.308;2022-08-21T05:52:37;14.60;99.90
41481;DHT22;27217;51.220;5.308;2022-08-21T05:55:04;14.40;99.90
41481;DHT22;27217;51.220;5.308;2022-08-21T05:57:29;14.30;99.90
41481;DHT22;27217;51.220;5.308;2022-08-21T05:59:55;14.30;99.90
41481;DHT22;27217;51.220;5.308;2022-08-21T06:02:22;14.40;99.90
41481;DHT22;27217;51.220;5.308;2022-08-21T06:04:48;14.40;99.90
41481;DHT22;27217;51.220;5.308;2022-08-21T06:07:14;14.40;99.90
41481;DHT22;27217;51.220;5.308;2022-08-21T06:09:40;14.40;99.90
41481;DHT22;27217;51.220;5.308;2022-08-21T06:12:09;14.50;99.90
41481;DHT22;27217;51.220;5.308;2022-08-21T06:14:35;14.50;99.90
41481;DHT22;27217;51.220;5.308;2022-08-21T06:17:03;14.80;99.90
41481;DHT22;27217;51.220;5.308;2022-08-21T06:19:29;15.20;99.90
41481;DHT22;27217;51.220;5.308;2022-08-21T06:21:56;15.20;99.90
41481;DHT22;27217;51.220;5.308;2022-08-21T06:24:22;15.30;99.90
41481;DHT22;27217;51.220;5.308;2022-08-21T06:26:48;15.30;99.90
41481;DHT22;27217;51.220;5.308;2022-08-21T06:29:14;15.80;99.90
41481;DHT22;27217;51.220;5.308;2022-08-21T06:31:49;16.10;99.90
41481;DHT22;27217;51.220;5.308;2022-08-21T06:34:16;16.30;99.90
41481;DHT22;27217;51.220;5.308;2022-08-21T06:36:42;16.30;99.90
41481;DHT22;27217;51.220;5.308;2022-08-21T06:39:08;16.10;99.90
41481;DHT22;27217;51.220;5.308;2022-08-21T06:41:34;16.00;99.90
41481;DHT22;27217;51.220;5.308;2022-08-21T06:44:01;16.20;99.90
41481;DHT22;27217;51.220;5.308;2022-08-21T06:46:28;16.10;99.90
41481;DHT22;27217;51.220;5.308;2022-08-21T06:48:55;16.00;99.90
41481;DHT22;27217;51.220;5.308;2022-08-21T06:51:22;16.20;99.90
41481;DHT22;27217;51.220;5.308;2022-08-21T06:53:48;16.30;99.90
41481;DHT22;27217;51.220;5.308;2022-08-21T06:56:14;16.70;99.90
41481;DHT22;27217;51.220;5.308;2022-08-21T06:58:40;16.60;99.90
41481;DHT22;27217;51.220;5.308;2022-08-21T07:01:06;16.60;99.90
41481;DHT22;27217;51.220;5.308;2022-08-21T07:03:38;16.60;99.90
41481;DHT22;27217;51.220;5.308;2022-08-21T07:06:06;16.80;99.90
41481;DHT22;27217;51.220;5.308;2022-08-21T07:08:32;17.00;99.90
41481;DHT22;27217;51.220;5.308;2022-08-21T07:11:00;16.90;99.90
41481;DHT22;27217;51.220;5.308;2022-08-21T07:13:27;16.90;99.90
41481;DHT22;27217;51.220;5.308;2022-08-21T07:15:53;17.00;99.90
41481;DHT22;27217;51.220;5.308;2022-08-21T07:18:19;17.40;99.90
41481;DHT22;27217;51.220;5.308;2022-08-21T07:20:45;17.40;99.90
41481;DHT22;27217;51.220;5.308;2022-08-21T07:23:33;17.40;99.90
41481;DHT22;27217;51.220;5.308;2022-08-21T07:25:59;17.60;99.90
41481;DHT22;27217;51.220;5.308;2022-08-21T07:28:26;17.80;99.90
41481;DHT22;27217;51.220;5.308;2022-08-21T07:30:55;17.80;99.90
41481;DHT22;27217;51.220;5.308;2022-08-21T07:33:22;17.70;99.90
41481;DHT22;27217;51.220;5.308;2022-08-21T07:35:48;17.70;99.90
41481;DHT22;27217;51.220;5.308;2022-08-21T07:38:14;17.70;99.90
41481;DHT22;27217;51.220;5.308;2022-08-21T07:40:40;17.60;99.90
41481;DHT22;27217;51.220;5.308;2022-08-21T07:43:06;17.70;99.90
41481;DHT22;27217;51.220;5.308;2022-08-21T07:45:32;17.90;99.90
41481;DHT22;27217;51.220;5.308;2022-08-21T07:47:57;18.00;99.90
41481;DHT22;27217;51.220;5.308;2022-08-21T07:50:24;18.20;99.90
41481;DHT22;27217;51.220;5.308;2022-08-21T07:52:50;18.30;99.90
41481;DHT22;27217;51.220;5.308;2022-08-21T07:55:18;18.10;99.90
41481;DHT22;27217;51.220;5.308;2022-08-21T07:57:45;18.00;99.90
41481;DHT22;27217;51.220;5.308;2022-08-21T08:00:14;18.20;99.90
41481;DHT22;27217;51.220;5.308;2022-08-21T08:02:43;18.40;99.90
41481;DHT22;27217;51.220;5.308;2022-08-21T08:05:11;18.30;99.90
41481;DHT22;27217;51.220;5.308;2022-08-21T08:07:38;18.40;99.90
41481;DHT22;27217;51.220;5.308;2022-08-21T08:10:06;18.60;99.90
41481;DHT22;27217;51.220;5.308;2022-08-21T08:12:38;18.90;99.90
41481;DHT22;27217;51.220;5.308;2022-08-21T08:15:06;19.10;99.90
41481;DHT22;27217;51.220;5.308;2022-08-21T08:17:32;19.10;99.90
41481;DHT22;27217;51.220;5.308;2022-08-21T08:19:59;18.80;99.90
41481;DHT22;27217;51.220;5.308;2022-08-21T08:22:26;18.70;99.90
41481;DHT22;27217;51.220;5.308;2022-08-21T08:24:53;18.60;99.90
41481;DHT22;27217;51.220;5.308;2022-08-21T08:27:20;18.90;99.90
41481;DHT22;27217;51.220;5.308;2022-08-21T08:29:46;19.00;99.90
41481;DHT22;27217;51.220;5.308;2022-08-21T08:32:13;19.00;99.90
41481;DHT22;27217;51.220;5.308;2022-08-21T08:34:39;19.00;99.90
41481;DHT22;27217;51.220;5.308;2022-08-21T08:37:07;19.20;99.90
41481;DHT22;27217;51.220;5.308;2022-08-21T08:39:34;19.30;99.90
41481;DHT22;27217;51.220;5.308;2022-08-21T08:42:09;19.40;99.90
41481;DHT22;27217;51.220;5.308;2022-08-21T08:44:40;19.70;99.90
41481;DHT22;27217;51.220;5.308;2022-08-21T08:47:06;19.50;99.90
41481;DHT22;27217;51.220;5.308;2022-08-21T08:49:47;19.80;99.90
41481;DHT22;27217;51.220;5.308;2022-08-21T08:52:22;19.80;99.90
41481;DHT22;27217;51.220;5.308;2022-08-21T08:55:32;19.70;99.90
41481;DHT22;27217;51.220;5.308;2022-08-21T08:58:03;20.00;99.90
41481;DHT22;27217;51.220;5.308;2022-08-21T09:00:29;20.60;99.90
41481;DHT22;27217;51.220;5.308;2022-08-21T09:02:57;21.00;99.90
41481;DHT22;27217;51.220;5.308;2022-08-21T09:05:28;21.10;99.90
41481;DHT22;27217;51.220;5.308;2022-08-21T09:10:41;20.70;99.90
41481;DHT22;27217;51.220;5.308;2022-08-21T09:13:43;20.70;99.90
41481;DHT22;27217;51.220;5.308;2022-08-21T09:21:53;20.90;99.90
41481;DHT22;27217;51.220;5.308;2022-08-21T09:24:29;21.00;99.90
41481;DHT22;27217;51.220;5.308;2022-08-21T09:29:27;20.90;99.90
41481;DHT22;27217;51.220;5.308;2022-08-21T09:31:56;21.00;99.90
41481;DHT22;27217;51.220;5.308;2022-08-21T09:34:30;20.90;99.90
41481;DHT22;27217;51.220;5.308;2022-08-21T09:36:57;21.00;99.90
41481;DHT22;27217;51.220;5.308;2022-08-21T09:39:30;21.20;99.90
41481;DHT22;27217;51.220;5.308;2022-08-21T09:42:02;21.20;99.90
41481;DHT22;27217;51.220;5.308;2022-08-21T09:44:31;21.00;99.90
41481;DHT22;27217;51.220;5.308;2022-08-21T09:46:58;21.20;99.90
41481;DHT22;27217;51.220;5.308;2022-08-21T09:49:36;21.10;99.90
41481;DHT22;27217;51.220;5.308;2022-08-21T09:52:13;21.30;99.90
41481;DHT22;27217;51.220;5.308;2022-08-21T09:54:41;21.30;99.90
41481;DHT22;27217;51.220;5.308;2022-08-21T09:57:14;21.20;99.90
41481;DHT22;27217;51.220;5.308;2022-08-21T10:02:47;21.60;99.90
41481;DHT22;27217;51.220;5.308;2022-08-21T10:05:23;21.90;99.90
41481;DHT22;27217;51.220;5.308;2022-08-21T10:07:50;22.30;99.90
41481;DHT22;27217;51.220;5.308;2022-08-21T10:13:13;21.80;99.90
41481;DHT22;27217;51.220;5.308;2022-08-21T10:26:51;23.40;99.90
41481;DHT22;27217;51.220;5.308;2022-08-21T10:35:06;23.80;99.90
41481;DHT22;27217;51.220;5.308;2022-08-21T10:37:57;23.70;99.90
41481;DHT22;27217;51.220;5.308;2022-08-21T10:40:52;23.50;99.90
41481;DHT22;27217;51.220;5.308;2022-08-21T10:46:12;23.90;99.90
41481;DHT22;27217;51.220;5.308;2022-08-21T10:53:49;24.10;99.90
41481;DHT22;27217;51.220;5.308;2022-08-21T10:56:32;24.00;99.90
41481;DHT22;27217;51.220;5.308;2022-08-21T11:03:00;24.20;99.90
41481;DHT22;27217;51.220;5.308;2022-08-21T11:07:53;25.10;99.90
41481;DHT22;27217;51.220;5.308;2022-08-21T11:10:40;24.00;99.90
41481;DHT22;27217;51.220;5.308;2022-08-21T11:13:16;24.30;99.90
41481;DHT22;27217;51.220;5.308;2022-08-21T11:18:31;25.30;99.90
41481;DHT22;27217;51.220;5.308;2022-08-21T11:26:45;24.70;99.90
41481;DHT22;27217;51.220;5.308;2022-08-21T11:29:17;24.60;99.90
41481;DHT22;27217;51.220;5.308;2022-08-21T11:40:10;26.80;99.10
41481;DHT22;27217;51.220;5.308;2022-08-21T11:42:59;29.10;95.20
41481;DHT22;27217;51.220;5.308;2022-08-21T11:45:51;30.90;90.50
41481;DHT22;27217;51.220;5.308;2022-08-21T11:51:10;29.20;88.30
41481;DHT22;27217;51.220;5.308;2022-08-21T11:56:47;27.60;91.00
41481;DHT22;27217;51.220;5.308;2022-08-21T11:59:22;27.90;91.70
41481;DHT22;27217;51.220;5.308;2022-08-21T12:01:50;29.10;88.70
41481;DHT22;27217;51.220;5.308;2022-08-21T12:04:27;29.50;86.80
41481;DHT22;27217;51.220;5.308;2022-08-21T12:06:54;30.30;81.40
41481;DHT22;27217;51.220;5.308;2022-08-21T12:12:00;31.60;76.50
41481;DHT22;27217;51.220;5.308;2022-08-21T12:17:06;32.50;74.20
41481;DHT22;27217;51.220;5.308;2022-08-21T12:19:33;31.50;73.20
41481;DHT22;27217;51.220;5.308;2022-08-21T12:26:58;30.00;77.70
41481;DHT22;27217;51.220;5.308;2022-08-21T12:31:58;28.50;82.30
41481;DHT22;27217;51.220;5.308;2022-08-21T12:34:40;27.00;85.50
41481;DHT22;27217;51.220;5.308;2022-08-21T12:37:24;27.20;87.20
41481;DHT22;27217;51.220;5.308;2022-08-21T12:39:52;28.70;80.80
41481;DHT22;27217;51.220;5.308;2022-08-21T12:42:31;29.50;79.30
41481;DHT22;27217;51.220;5.308;2022-08-21T12:45:03;30.00;76.60
41481;DHT22;27217;51.220;5.308;2022-08-21T12:47:36;28.40;80.80
41481;DHT22;27217;51.220;5.308;2022-08-21T12:50:09;29.60;79.00
41481;DHT22;27217;51.220;5.308;2022-08-21T12:55:28;31.60;74.60
41481;DHT22;27217;51.220;5.308;2022-08-21T12:57:55;32.70;70.20
41481;DHT22;27217;51.220;5.308;2022-08-21T13:00:23;33.50;67.90
41481;DHT22;27217;51.220;5.308;2022-08-21T13:02:51;32.60;67.60
41481;DHT22;27217;51.220;5.308;2022-08-21T13:05:44;31.80;68.50
41481;DHT22;27217;51.220;5.308;2022-08-21T13:08:11;33.40;66.20
41481;DHT22;27217;51.220;5.308;2022-08-21T13:10:40;34.20;64.20
41481;DHT22;27217;51.220;5.308;2022-08-21T13:13:21;33.50;64.20
41481;DHT22;27217;51.220;5.308;2022-08-21T13:15:48;32.60;65.50
41481;DHT22;27217;51.220;5.308;2022-08-21T13:18:24;30.20;69.20
41481;DHT22;27217;51.220;5.308;2022-08-21T13:20:51;28.50;75.20
41481;DHT22;27217;51.220;5.308;2022-08-21T13:23:26;28.60;76.00
41481;DHT22;27217;51.220;5.308;2022-08-21T13:25:54;31.00;71.40
41481;DHT22;27217;51.220;5.308;2022-08-21T13:28:20;31.00;70.20
41481;DHT22;27217;51.220;5.308;2022-08-21T13:30:54;31.30;69.50
41481;DHT22;27217;51.220;5.308;2022-08-21T13:33:24;30.70;70.20
41481;DHT22;27217;51.220;5.308;2022-08-21T13:38:28;31.50;69.30
41481;DHT22;27217;51.220;5.308;2022-08-21T13:41:08;33.80;66.00
41481;DHT22;27217;51.220;5.308;2022-08-21T13:43:37;33.10;64.40
41481;DHT22;27217;51.220;5.308;2022-08-21T13:46:09;33.30;63.60
41481;DHT22;27217;51.220;5.308;2022-08-21T13:48:36;33.50;61.70
41481;DHT22;27217;51.220;5.308;2022-08-21T13:51:03;34.30;60.90
41481;DHT22;27217;51.220;5.308;2022-08-21T13:53:47;34.40;60.20
41481;DHT22;27217;51.220;5.308;2022-08-21T13:56:25;32.70;61.40
41481;DHT22;27217;51.220;5.308;2022-08-21T13:58:53;32.30;63.60
41481;DHT22;27217;51.220;5.308;2022-08-21T14:01:30;31.70;65.10
41481;DHT22;27217;51.220;5.308;2022-08-21T14:04:01;31.10;65.60
41481;DHT22;27217;51.220;5.308;2022-08-21T14:06:32;31.00;63.70
41481;DHT22;27217;51.220;5.308;2022-08-21T14:09:07;29.40;67.90
41481;DHT22;27217;51.220;5.308;2022-08-21T14:11:35;29.70;67.00
41481;DHT22;27217;51.220;5.308;2022-08-21T14:14:22;30.50;66.10
41481;DHT22;27217;51.220;5.308;2022-08-21T14:16:55;31.60;64.60
41481;DHT22;27217;51.220;5.308;2022-08-21T14:19:25;32.10;63.10
41481;DHT22;27217;51.220;5.308;2022-08-21T14:21:51;31.60;64.40
41481;DHT22;27217;51.220;5.308;2022-08-21T14:26:52;30.40;64.90
41481;DHT22;27217;51.220;5.308;2022-08-21T14:29:21;29.70;67.30
41481;DHT22;27217;51.220;5.308;2022-08-21T14:32:00;28.20;69.90
41481;DHT22;27217;51.220;5.308;2022-08-21T14:34:33;27.50;71.70
41481;DHT22;27217;51.220;5.308;2022-08-21T14:37:15;27.40;74.50
41481;DHT22;27217;51.220;5.308;2022-08-21T14:39:41;27.20;77.50
41481;DHT22;27217;51.220;5.308;2022-08-21T14:42:07;27.00;79.20
41481;DHT22;27217;51.220;5.308;2022-08-21T14:44:33;27.40;77.80
41481;DHT22;27217;51.220;5.308;2022-08-21T14:46:59;27.80;76.00
41481;DHT22;27217;51.220;5.308;2022-08-21T14:49:27;28.60;74.40
41481;DHT22;27217;51.220;5.308;2022-08-21T14:51:55;29.60;72.60
41481;DHT22;27217;51.220;5.308;2022-08-21T14:54:24;30.50;70.60
41481;DHT22;27217;51.220;5.308;2022-08-21T14:56:50;30.00;70.50
41481;DHT22;27217;51.220;5.308;2022-08-21T14:59:16;29.80;72.40
41481;DHT22;27217;51.220;5.308;2022-08-21T15:01:42;30.80;70.20
41481;DHT22;27217;51.220;5.308;2022-08-21T15:04:08;31.20;69.20
41481;DHT22;27217;51.220;5.308;2022-08-21T15:06:34;30.80;69.00
41481;DHT22;27217;51.220;5.308;2022-08-21T15:09:00;30.20;70.20
41481;DHT22;27217;51.220;5.308;2022-08-21T15:11:28;29.70;70.50
41481;DHT22;27217;51.220;5.308;2022-08-21T15:13:57;28.80;72.90
41481;DHT22;27217;51.220;5.308;2022-08-21T15:16:27;28.60;73.20
41481;DHT22;27217;51.220;5.308;2022-08-21T15:18:53;28.20;73.20
41481;DHT22;27217;51.220;5.308;2022-08-21T15:21:19;28.00;74.80
41481;DHT22;27217;51.220;5.308;2022-08-21T15:23:45;28.00;75.30
41481;DHT22;27217;51.220;5.308;2022-08-21T15:26:10;28.20;75.00
41481;DHT22;27217;51.220;5.308;2022-08-21T15:28:36;28.80;74.10
41481;DHT22;27217;51.220;5.308;2022-08-21T15:31:04;29.90;72.00
41481;DHT22;27217;51.220;5.308;2022-08-21T15:33:30;32.20;67.50
41481;DHT22;27217;51.220;5.308;2022-08-21T15:35:56;35.00;62.90
41481;DHT22;27217;51.220;5.308;2022-08-21T15:38:23;34.60;61.60
41481;DHT22;27217;51.220;5.308;2022-08-21T15:40:49;33.20;62.80
41481;DHT22;27217;51.220;5.308;2022-08-21T15:43:27;32.50;65.00
41481;DHT22;27217;51.220;5.308;2022-08-21T15:45:54;32.80;65.50
41481;DHT22;27217;51.220;5.308;2022-08-21T15:48:21;33.00;65.00
41481;DHT22;27217;51.220;5.308;2022-08-21T15:50:47;32.70;64.90
41481;DHT22;27217;51.220;5.308;2022-08-21T15:53:13;32.40;64.80
41481;DHT22;27217;51.220;5.308;2022-08-21T15:55:39;32.60;64.70
41481;DHT22;27217;51.220;5.308;2022-08-21T15:58:05;32.60;64.80
41481;DHT22;27217;51.220;5.308;2022-08-21T16:00:34;31.70;66.20
41481;DHT22;27217;51.220;5.308;2022-08-21T16:03:03;31.40;66.90
41481;DHT22;27217;51.220;5.308;2022-08-21T16:05:29;30.20;68.90
41481;DHT22;27217;51.220;5.308;2022-08-21T16:07:56;30.00;70.00
41481;DHT22;27217;51.220;5.308;2022-08-21T16:10:23;30.40;69.80
41481;DHT22;27217;51.220;5.308;2022-08-21T16:12:54;30.10;69.40
41481;DHT22;27217;51.220;5.308;2022-08-21T16:15:20;29.10;71.70
41481;DHT22;27217;51.220;5.308;2022-08-21T16:17:48;28.10;74.60
41481;DHT22;27217;51.220;5.308;2022-08-21T16:20:17;28.20;75.20
41481;DHT22;27217;51.220;5.308;2022-08-21T16:22:44;27.80;76.80
41481;DHT22;27217;51.220;5.308;2022-08-21T16:25:11;27.60;78.10
41481;DHT22;27217;51.220;5.308;2022-08-21T16:27:37;27.60;79.10
41481;DHT22;27217;51.220;5.308;2022-08-21T16:30:06;27.70;79.00
41481;DHT22;27217;51.220;5.308;2022-08-21T16:32:31;27.40;79.70
41481;DHT22;27217;51.220;5.308;2022-08-21T16:34:59;27.30;80.30
41481;DHT22;27217;51.220;5.308;2022-08-21T16:37:26;27.30;80.60
41481;DHT22;27217;51.220;5.308;2022-08-21T16:39:52;27.20;80.50
41481;DHT22;27217;51.220;5.308;2022-08-21T16:42:21;26.90;82.00
41481;DHT22;27217;51.220;5.308;2022-08-21T16:44:47;26.50;84.70
41481;DHT22;27217;51.220;5.308;2022-08-21T16:47:13;26.40;86.50
41481;DHT22;27217;51.220;5.308;2022-08-21T16:49:39;26.60;87.60
41481;DHT22;27217;51.220;5.308;2022-08-21T16:52:05;26.20;89.50
41481;DHT22;27217;51.220;5.308;2022-08-21T16:54:32;26.00;90.70
41481;DHT22;27217;51.220;5.308;2022-08-21T16:56:59;26.00;91.50
41481;DHT22;27217;51.220;5.308;2022-08-21T16:59:25;26.00;91.50
41481;DHT22;27217;51.220;5.308;2022-08-21T17:01:52;25.90;92.10
41481;DHT22;27217;51.220;5.308;2022-08-21T17:04:21;25.80;92.50
41481;DHT22;27217;51.220;5.308;2022-08-21T17:06:48;25.70;92.70
41481;DHT22;27217;51.220;5.308;2022-08-21T17:09:14;25.60;93.60
41481;DHT22;27217;51.220;5.308;2022-08-21T17:11:42;25.80;92.90